createdAt,value
2022-11-20T00:00:57.927Z,76.7
2022-11-20T00:05:57.901Z,76.5
2022-11-20T00:10:57.902Z,77.3
2022-11-20T00:15:57.881Z,76.2
2022-11-20T00:20:57.920Z,77.4
2022-11-20T00:30:57.899Z,76.2
2022-11-20T00:35:57.881Z,76.2
2022-11-20T00:40:57.905Z,76.7
2022-11-20T00:45:57.906Z,75.4
2022-11-20T00:50:57.918Z,76.1
2022-11-20T00:55:57.920Z,77.7
2022-11-20T01:00:57.975Z,77.6
2022-11-20T01:05:57.904Z,77.3
2022-11-20T01:10:57.905Z,77.9
2022-11-20T01:20:57.966Z,78.0
2022-11-20T01:25:57.888Z,78.0
2022-11-20T01:30:57.949Z,77.5
2022-11-20T01:35:57.921Z,78.2
2022-11-20T01:40:57.883Z,79.0
2022-11-20T01:45:58.011Z,78.2
2022-11-20T01:50:57.931Z,78.2
2022-11-20T02:00:57.953Z,77.4
2022-11-20T02:05:57.918Z,77.8
2022-11-20T02:10:59.045Z,77.5
2022-11-20T02:15:57.904Z,77.5
2022-11-20T02:20:58.150Z,76.4
2022-11-20T02:25:57.915Z,77.9
2022-11-20T02:30:57.904Z,76.9
2022-11-20T02:35:57.908Z,78.6
2022-11-20T02:40:57.904Z,78.5
2022-11-20T02:45:57.903Z,78.4
2022-11-20T02:50:57.908Z,77.0
2022-11-20T02:55:57.932Z,78.5
2022-11-20T03:00:57.955Z,79.2
2022-11-20T03:10:57.936Z,78.4
2022-11-20T03:20:57.913Z,78.4
2022-11-20T03:25:57.942Z,78.6
2022-11-20T03:30:57.936Z,78.5
2022-11-20T03:35:57.911Z,77.3
2022-11-20T03:40:57.938Z,78.8
2022-11-20T03:45:57.936Z,79.2
2022-11-20T03:50:57.937Z,78.0
2022-11-20T04:00:58.016Z,78.2
2022-11-20T04:05:57.947Z,79.9
2022-11-20T04:10:57.940Z,78.8
2022-11-20T04:15:57.946Z,78.8
2022-11-20T04:20:57.946Z,79.5
2022-11-20T04:25:57.919Z,79.2
2022-11-20T04:30:57.953Z,77.8
2022-11-20T04:35:57.945Z,80.3
2022-11-20T04:40:57.951Z,77.3
2022-11-20T04:45:57.945Z,80.3
2022-11-20T04:50:57.958Z,79.2
2022-11-20T04:55:57.962Z,78.5
2022-11-20T05:00:57.918Z,78.2
2022-11-20T05:05:57.946Z,78.2
2022-11-20T05:10:57.960Z,80.0
2022-11-20T05:15:57.929Z,78.1
2022-11-20T05:20:57.969Z,76.8
2022-11-20T05:25:59.819Z,78.5
2022-11-20T05:35:57.943Z,78.6
2022-11-20T05:40:57.959Z,78.2
2022-11-20T05:45:57.938Z,76.9
2022-11-20T05:50:57.944Z,79.8
2022-11-20T05:55:57.958Z,80.4
2022-11-20T06:00:57.936Z,77.2
2022-11-20T06:05:57.932Z,79.1
2022-11-20T06:10:57.945Z,79.3
2022-11-20T06:15:57.949Z,76.6
2022-11-20T06:20:57.939Z,76.6
2022-11-20T06:25:57.943Z,78.2
2022-11-20T06:30:57.964Z,76.9
2022-11-20T06:36:00.912Z,79.4
2022-11-20T06:45:57.962Z,78.8
2022-11-20T06:50:57.944Z,79.8
2022-11-20T06:55:57.948Z,78.5
2022-11-20T07:00:58.030Z,78.5
2022-11-20T07:05:57.951Z,78.3
2022-11-20T07:10:57.948Z,78.9
2022-11-20T07:15:57.971Z,78.9
2022-11-20T07:35:57.957Z,78.3
2022-11-20T07:40:57.976Z,78.3
2022-11-20T07:45:57.958Z,77.4
2022-11-20T07:50:57.986Z,77.6
2022-11-20T07:55:57.985Z,76.5
2022-11-20T08:00:58.013Z,76.5
2022-11-20T08:05:57.981Z,75.7
2022-11-20T08:10:57.956Z,76.7
2022-11-20T08:15:57.959Z,76.6
2022-11-20T08:20:57.975Z,76.2
2022-11-20T08:25:57.996Z,76.0
2022-11-20T08:30:57.974Z,77.4
2022-11-20T08:35:57.989Z,78.1
2022-11-20T08:45:57.966Z,76.4
2022-11-20T08:50:57.979Z,76.9
2022-11-20T08:55:57.989Z,76.3
2022-11-20T09:05:57.991Z,76.4
2022-11-20T09:10:57.985Z,75.4
2022-11-20T09:15:58.001Z,76.9
2022-11-20T09:20:57.997Z,76.9
2022-11-20T09:25:57.970Z,78.0
2022-11-20T09:30:58.002Z,76.7
2022-11-20T09:35:57.959Z,75.9
2022-11-20T09:40:57.969Z,74.9
2022-11-20T09:45:58.044Z,74.4
2022-11-20T09:50:57.991Z,74.4
2022-11-20T09:55:57.966Z,73.3
2022-11-20T10:00:57.993Z,75.3
2022-11-20T10:05:57.997Z,75.4
2022-11-20T10:10:57.965Z,77.9
2022-11-20T10:15:57.973Z,75.1
2022-11-20T10:20:57.998Z,73.7
2022-11-20T10:25:58.009Z,76.9
2022-11-20T10:30:57.988Z,76.8
2022-11-20T10:35:58.001Z,75.2
2022-11-20T10:40:58.013Z,73.2
2022-11-20T10:45:57.985Z,72.1
2022-11-20T10:50:58.012Z,73.8
2022-11-20T10:55:58.014Z,70.8
2022-11-20T11:00:58.042Z,71.5
2022-11-20T11:05:58.036Z,73.6
2022-11-20T11:10:58.003Z,73.6
2022-11-20T11:15:57.986Z,73.3
2022-11-20T11:20:58.006Z,73.8
2022-11-20T11:25:58.027Z,71.5
2022-11-20T11:30:58.011Z,73.8
2022-11-20T11:35:57.985Z,71.9
2022-11-20T11:40:58.225Z,73.9
2022-11-20T11:45:58.015Z,72.9
2022-11-20T11:50:57.986Z,72.6
2022-11-20T11:55:58.006Z,73.2
2022-11-20T12:00:57.989Z,72.4
2022-11-20T12:05:58.022Z,74.3
2022-11-20T12:15:58.025Z,75.8
2022-11-20T12:20:58.020Z,74.2
2022-11-20T12:30:58.030Z,74.8
2022-11-20T12:35:57.987Z,75.2
2022-11-20T12:40:58.036Z,75.8
2022-11-20T12:45:58.034Z,77.2
2022-11-20T12:51:14.575Z,76.8
2022-11-20T12:55:58.000Z,77.4
2022-11-20T13:05:58.002Z,76.8
2022-11-20T13:10:58.002Z,77.2
2022-11-20T13:15:58.031Z,77.9
2022-11-20T13:20:58.004Z,77.3
2022-11-20T13:25:58.007Z,78.3
2022-11-20T13:30:58.038Z,79.8
2022-11-20T13:50:58.044Z,81.7
2022-11-20T13:55:58.002Z,81.6
2022-11-20T14:00:58.076Z,81.8
2022-11-20T14:05:58.044Z,81.8
2022-11-20T14:15:58.022Z,83.5
2022-11-20T14:20:58.010Z,82.7
2022-11-20T14:25:58.045Z,84.6
2022-11-20T14:30:58.019Z,84.2
2022-11-20T14:35:58.046Z,84.1
2022-11-20T14:45:58.007Z,86.2
2022-11-20T14:50:58.037Z,86.1
2022-11-20T14:55:58.933Z,85.3
2022-11-20T15:05:58.054Z,86.5
2022-11-20T15:10:58.018Z,88.1
2022-11-20T15:20:58.053Z,86.7
2022-11-20T15:30:58.021Z,87.9
2022-11-20T15:35:58.054Z,88.3
2022-11-20T15:40:58.032Z,88.0
2022-11-20T15:45:58.026Z,87.7
2022-11-20T15:50:58.033Z,85.6
2022-11-20T15:55:58.051Z,87.9
2022-11-20T16:00:58.075Z,93.6
2022-11-20T16:05:58.040Z,99.2
2022-11-20T16:46:12.385Z,92.9
2022-11-20T16:51:12.374Z,93.8
2022-11-20T17:11:12.658Z,93.6
2022-11-20T17:21:12.391Z,93.0
2022-11-20T17:26:12.393Z,94.0
2022-11-20T17:36:12.425Z,95.4
2022-11-20T17:56:12.405Z,95.3
2022-11-20T18:31:12.473Z,99.7
2022-11-20T18:36:12.399Z,99.7
2022-11-20T18:41:12.403Z,98.1
2022-11-20T18:46:13.076Z,100.0
2022-11-20T18:51:12.424Z,100.0
2022-11-20T18:56:12.460Z,100.0
2022-11-20T19:11:12.418Z,100.0
2022-11-20T19:16:12.416Z,100.0
2022-11-20T19:21:12.441Z,100.0
2022-11-20T19:26:12.409Z,100.0
2022-11-20T19:31:12.415Z,100.0
2022-11-20T19:36:12.442Z,100.0
2022-11-20T19:41:12.422Z,100.0
2022-11-20T19:46:12.417Z,100.0
2022-11-20T19:51:12.445Z,100.0
2022-11-20T19:56:12.432Z,100.0
2022-11-20T20:06:12.437Z,100.0
2022-11-20T20:11:12.460Z,100.0
2022-11-20T20:16:12.424Z,100.0
2022-11-20T20:21:12.460Z,100.0
2022-11-20T20:26:12.459Z,100.0
2022-11-20T20:31:12.454Z,100.0
2022-11-20T20:41:12.453Z,100.0
2022-11-20T20:46:12.454Z,100.0
2022-11-20T21:06:12.438Z,100.0
2022-11-20T21:11:12.470Z,100.0
2022-11-20T21:16:12.453Z,100.0
2022-11-20T21:21:12.442Z,99.8
2022-11-20T21:31:12.468Z,100.0
2022-11-20T21:56:16.361Z,100.0
2022-11-20T22:01:12.556Z,100.0
2022-11-20T22:06:12.444Z,100.0
2022-11-20T22:11:13.916Z,100.0
2022-11-20T22:16:12.450Z,100.0
2022-11-20T22:21:12.704Z,100.0
2022-11-20T22:26:12.460Z,98.3
2022-11-20T22:31:12.442Z,99.1
2022-11-20T22:36:13.596Z,100.0
2022-11-20T22:41:12.493Z,100.0
2022-11-20T22:56:12.481Z,99.4
2022-11-20T23:01:12.485Z,99.1
2022-11-20T23:06:12.447Z,99.7
2022-11-20T23:16:12.483Z,98.2
2022-11-20T23:21:12.461Z,98.9
2022-11-20T23:26:12.501Z,98.8
2022-11-20T23:31:12.481Z,98.9
2022-11-20T23:41:12.478Z,97.2
